Nashville, Tennessee
Traffic Map
Current Weather Conditions
Nashville, Tennessee
Clear
Clear

Feels Like: 5°
Wind Chill: Ceiling: Unl
Heat Index: Visibility: 10mi
Dew Point: Wind: 5mph
Humidity: 89% Direction: 30° (NNE)
Pressure: 30.23in Gusts: 0mph
Raw Report DataKBNA 230653Z 03004KT 10SM CLR 07/05 A3023 RMK AO2 SLP234 T00670050
Traffic Incident Summary
Active as of:
Severity:
Category:
InformationThere was an issue retrieving the traffic information for this location. Please try a different location or try again shortly.
Advertisements
Track Severe Weather on mobile